Time;durP1;ratioP1;P1;durP2;ratioP2;P2;SDS_P1;SDS_P2;PMS_P1;PMS_P2;Temp;Humidity;BMP_temperature;BMP_pressure;BME280_temperature;BME280_humidity;BME280_pressure;Samples;Min_cycle;Max_cycle;Signal;HPM_P1;HPM_P2
2021/06/08 00:01:56;;;;;;;4.10;3.70;;;17.60;99.90;;;;;;5033339;28;20195;-86
2021/06/08 00:04:21;;;;;;;7.53;3.75;;;17.60;99.90;;;;;;5034343;28;20206;-86
2021/06/08 00:06:48;;;;;;;6.47;3.72;;;17.50;99.90;;;;;;5049914;28;20171;-86
2021/06/08 00:09:14;;;;;;;10.18;3.88;;;17.40;99.90;;;;;;5053269;28;20229;-86
2021/06/08 00:11:40;;;;;;;4.72;3.53;;;17.50;99.90;;;;;;5069885;28;20199;-87
2021/06/08 00:14:05;;;;;;;8.48;3.65;;;17.40;99.90;;;;;;5054371;28;20666;-86
2021/06/08 00:16:31;;;;;;;5.10;3.67;;;17.40;99.90;;;;;;5069642;28;20251;-86
2021/06/08 00:18:57;;;;;;;8.60;4.30;;;17.30;99.90;;;;;;5067530;28;20170;-87
2021/06/08 00:21:22;;;;;;;3.92;3.53;;;17.20;99.90;;;;;;5050346;28;20186;-86
2021/06/08 00:23:48;;;;;;;7.90;3.58;;;17.30;99.90;;;;;;5054204;28;20261;-85
2021/06/08 00:26:13;;;;;;;6.85;3.50;;;17.20;99.90;;;;;;5069956;28;20167;-86
2021/06/08 00:28:39;;;;;;;6.68;3.53;;;17.10;99.90;;;;;;5052898;28;20167;-86
2021/06/08 00:31:05;;;;;;;4.35;3.95;;;17.00;99.90;;;;;;5053687;28;20205;-87
2021/06/08 00:33:30;;;;;;;16.65;4.60;;;17.00;99.90;;;;;;5069681;28;20693;-86
2021/06/08 00:35:56;;;;;;;5.20;3.80;;;17.00;99.90;;;;;;5057642;28;20176;-85
2021/06/08 00:38:22;;;;;;;5.00;3.65;;;17.00;99.90;;;;;;5033882;28;20163;-84
2021/06/08 00:40:47;;;;;;;4.25;3.85;;;17.00;99.90;;;;;;5033937;28;20172;-85
2021/06/08 00:43:13;;;;;;;9.20;3.97;;;17.00;99.90;;;;;;5032764;28;20180;-84
2021/06/08 00:45:39;;;;;;;7.03;4.43;;;16.90;99.90;;;;;;5016178;28;20160;-85
2021/06/08 00:48:06;;;;;;;13.13;4.00;;;16.90;99.90;;;;;;5043329;28;20175;-85
2021/06/08 00:50:33;;;;;;;4.90;4.40;;;17.00;99.90;;;;;;5052461;28;20551;-85
2021/06/08 00:52:58;;;;;;;7.15;4.30;;;16.90;99.90;;;;;;5051677;28;20160;-85
2021/06/08 00:55:24;;;;;;;5.38;4.47;;;16.80;99.90;;;;;;5037784;28;20730;-85
2021/06/08 00:57:50;;;;;;;4.53;4.13;;;16.80;99.90;;;;;;5036604;28;20164;-85
2021/06/08 01:00:16;;;;;;;6.15;4.35;;;16.80;99.90;;;;;;5037891;28;20688;-85
2021/06/08 01:02:42;;;;;;;9.95;4.90;;;16.70;99.90;;;;;;5037972;28;20286;-86
2021/06/08 01:05:09;;;;;;;6.97;4.75;;;16.70;99.90;;;;;;5037668;28;20255;-85
2021/06/08 01:07:35;;;;;;;5.60;5.20;;;16.70;99.90;;;;;;5037506;28;20682;-85
2021/06/08 01:10:04;;;;;;;5.88;4.72;;;16.70;99.90;;;;;;5040989;28;20207;-85
2021/06/08 01:12:29;;;;;;;5.65;4.95;;;16.70;99.90;;;;;;5056336;28;20217;-85
2021/06/08 01:14:55;;;;;;;11.00;5.10;;;16.60;99.90;;;;;;5039004;28;20612;-85
2021/06/08 01:17:21;;;;;;;8.48;4.55;;;16.60;99.90;;;;;;5049809;28;20250;-86
2021/06/08 01:19:48;;;;;;;9.73;4.10;;;16.60;99.90;;;;;;5056996;28;20254;-85
2021/06/08 01:22:15;;;;;;;4.80;4.43;;;16.50;99.90;;;;;;5072812;28;20198;-85
2021/06/08 01:24:43;;;;;;;14.40;5.85;;;16.50;99.90;;;;;;5057556;28;20163;-85
2021/06/08 01:27:09;;;;;;;9.63;5.32;;;16.40;99.90;;;;;;5056769;28;20482;-85
2021/06/08 01:29:36;;;;;;;5.88;5.40;;;16.40;99.90;;;;;;5072671;28;20166;-85
2021/06/08 01:32:03;;;;;;;5.18;4.75;;;16.30;99.90;;;;;;5057156;28;20183;-85
2021/06/08 01:34:30;;;;;;;7.15;5.30;;;16.30;99.90;;;;;;5057044;28;20570;-85
2021/06/08 01:36:56;;;;;;;7.45;6.20;;;16.30;99.90;;;;;;5038360;28;20264;-85
2021/06/08 01:39:22;;;;;;;6.55;5.85;;;16.30;99.90;;;;;;5036867;28;20569;-85
2021/06/08 01:41:49;;;;;;;6.65;6.10;;;16.30;99.90;;;;;;5037055;28;20230;-85
2021/06/08 01:44:15;;;;;;;6.90;5.65;;;16.20;99.90;;;;;;5045228;28;20521;-84
2021/06/08 01:46:41;;;;;;;6.68;6.18;;;16.10;99.90;;;;;;5072399;28;20175;-85
2021/06/08 01:49:06;;;;;;;6.93;6.35;;;16.10;99.90;;;;;;5056880;28;20171;-84
2021/06/08 01:51:47;;;;;;;6.80;6.20;;;16.20;99.90;;;;;;5056909;28;20196;-85
2021/06/08 01:54:16;;;;;;;9.32;6.57;;;16.20;99.90;;;;;;5056555;28;20246;-85
2021/06/08 01:56:45;;;;;;;11.15;6.95;;;16.10;99.90;;;;;;5052452;28;20221;-85
2021/06/08 01:59:19;;;;;;;8.55;7.53;;;16.00;99.90;;;;;;5036677;28;20183;-85
2021/06/08 02:01:57;;;;;;;8.57;6.88;;;16.00;99.90;;;;;;5037413;28;20164;-86
2021/06/08 02:04:33;;;;;;;8.50;7.45;;;16.00;99.90;;;;;;5036274;28;20156;-85
2021/06/08 02:07:29;;;;;;;8.75;7.60;;;16.10;99.90;;;;;;5035251;28;20164;-85
2021/06/08 02:10:01;;;;;;;8.30;7.53;;;16.10;99.90;;;;;;5034748;28;20176;-84
2021/06/08 02:12:27;;;;;;;7.93;7.28;;;16.20;99.90;;;;;;5035268;28;20171;-85
2021/06/08 02:14:58;;;;;;;8.32;7.65;;;16.20;99.90;;;;;;5040299;28;20175;-84
2021/06/08 02:17:29;;;;;;;7.60;7.00;;;16.10;99.90;;;;;;5055432;28;20172;-85
2021/06/08 02:20:00;;;;;;;7.97;7.30;;;16.10;99.90;;;;;;5051704;28;20164;-85
2021/06/08 02:22:28;;;;;;;8.23;7.38;;;16.10;99.90;;;;;;5034772;28;20169;-85
2021/06/08 02:24:54;;;;;;;9.18;8.27;;;16.10;99.90;;;;;;5036279;28;20171;-85
2021/06/08 02:27:24;;;;;;;10.23;8.55;;;16.10;99.90;;;;;;5036415;28;20246;-85
2021/06/08 02:29:52;;;;;;;10.88;7.55;;;16.00;99.90;;;;;;5036198;28;20156;-85
2021/06/08 02:32:19;;;;;;;10.02;8.20;;;16.00;99.90;;;;;;5035011;28;20307;-85
2021/06/08 02:34:45;;;;;;;7.68;6.78;;;16.00;99.90;;;;;;5037111;28;20245;-86
2021/06/08 02:37:14;;;;;;;8.75;7.70;;;15.90;99.90;;;;;;5054585;28;20163;-85
2021/06/08 02:39:41;;;;;;;8.43;7.78;;;15.90;99.90;;;;;;5052573;28;20180;-85
2021/06/08 02:42:09;;;;;;;8.60;7.80;;;15.90;99.90;;;;;;5034850;28;20172;-84
2021/06/08 02:44:35;;;;;;;10.10;9.15;;;15.90;99.90;;;;;;5047755;28;20176;-85
2021/06/08 02:47:01;;;;;;;10.52;9.57;;;15.80;99.90;;;;;;5055824;28;20250;-85
2021/06/08 02:49:28;;;;;;;10.88;9.90;;;15.80;99.90;;;;;;5055470;28;20168;-84
2021/06/08 02:51:54;;;;;;;9.90;9.10;;;15.80;99.90;;;;;;5053745;28;20191;-84
2021/06/08 02:54:21;;;;;;;12.85;8.00;;;15.80;99.90;;;;;;5055171;28;20191;-84
2021/06/08 02:56:48;;;;;;;12.35;6.82;;;15.80;99.90;;;;;;5056076;28;20164;-85
2021/06/08 02:59:15;;;;;;;11.35;6.55;;;15.70;99.90;;;;;;5055430;28;20156;-85
2021/06/08 03:01:45;;;;;;;8.10;6.85;;;15.60;99.90;;;;;;5053797;28;20199;-84
2021/06/08 03:04:15;;;;;;;8.68;6.68;;;15.50;99.90;;;;;;5047854;28;20168;-85
2021/06/08 03:06:50;;;;;;;8.52;6.10;;;15.40;99.90;;;;;;5035495;28;20604;-84
2021/06/08 03:09:21;;;;;;;6.50;6.10;;;15.40;99.90;;;;;;5040365;28;20174;-85
2021/06/08 03:11:50;;;;;;;7.88;6.63;;;15.40;99.90;;;;;;5055155;28;20218;-85
2021/06/08 03:14:18;;;;;;;8.07;7.38;;;15.50;99.90;;;;;;5052979;28;20170;-85
2021/06/08 03:16:53;;;;;;;8.38;7.53;;;15.50;99.90;;;;;;5054759;28;20164;-84
2021/06/08 03:19:22;;;;;;;8.20;7.40;;;15.50;99.90;;;;;;5055049;28;20505;-84
2021/06/08 03:21:55;;;;;;;9.65;7.40;;;15.50;99.90;;;;;;5070362;28;20163;-84
2021/06/08 03:24:25;;;;;;;9.48;8.02;;;15.50;99.90;;;;;;5044572;28;20508;-84
2021/06/08 03:26:53;;;;;;;11.65;6.85;;;15.50;99.90;;;;;;5034999;28;20152;-85
2021/06/08 03:29:19;;;;;;;7.28;6.63;;;15.50;99.90;;;;;;5034982;28;20675;-84
2021/06/08 03:31:47;;;;;;;8.55;7.40;;;15.50;99.90;;;;;;5053290;28;20245;-85
2021/06/08 03:34:15;;;;;;;8.13;7.40;;;15.50;99.90;;;;;;5054852;28;20156;-84
2021/06/08 03:36:49;;;;;;;12.75;6.97;;;15.50;99.90;;;;;;5054832;28;20174;-85
2021/06/08 03:39:17;;;;;;;9.52;7.80;;;15.50;99.90;;;;;;5045445;28;20194;-84
2021/06/08 03:41:45;;;;;;;10.50;7.38;;;15.50;99.90;;;;;;5033128;28;20210;-84
2021/06/08 03:44:16;;;;;;;7.38;6.78;;;15.50;99.90;;;;;;5034744;28;20193;-85
2021/06/08 03:46:44;;;;;;;8.05;7.22;;;15.50;99.90;;;;;;5017008;28;20179;-85
2021/06/08 03:49:10;;;;;;;9.90;7.72;;;15.50;99.90;;;;;;5033497;28;20517;-85
2021/06/08 03:51:36;;;;;;;21.65;8.82;;;15.50;99.90;;;;;;5033558;28;20345;-85
2021/06/08 03:54:03;;;;;;;21.42;8.40;;;15.60;99.90;;;;;;5034588;28;20218;-83
2021/06/08 03:56:29;;;;;;;16.58;9.88;;;15.60;99.90;;;;;;5034525;28;20235;-85
2021/06/08 03:58:56;;;;;;;10.85;8.02;;;15.60;99.90;;;;;;5046437;28;20167;-85
2021/06/08 04:01:23;;;;;;;8.63;7.82;;;15.60;99.90;;;;;;5069842;28;20257;-85
2021/06/08 04:03:50;;;;;;;12.20;7.07;;;15.70;99.90;;;;;;5054629;28;20182;-85
2021/06/08 04:06:18;;;;;;;11.30;8.35;;;15.70;99.90;;;;;;5053764;28;20636;-85
2021/06/08 04:08:44;;;;;;;9.77;8.10;;;15.70;99.90;;;;;;5049129;28;20176;-84
2021/06/08 04:11:11;;;;;;;9.73;8.35;;;15.60;99.90;;;;;;5034303;28;20187;-85
2021/06/08 04:13:40;;;;;;;8.20;6.97;;;15.70;99.90;;;;;;5034148;28;20179;-84
2021/06/08 04:16:09;;;;;;;13.57;8.40;;;15.80;99.90;;;;;;5034235;28;20164;-85
2021/06/08 04:18:36;;;;;;;12.23;8.55;;;15.80;99.90;;;;;;5033910;28;20175;-85
2021/06/08 04:21:03;;;;;;;9.27;8.23;;;15.90;99.90;;;;;;5034243;28;20217;-85
2021/06/08 04:23:29;;;;;;;11.10;8.23;;;15.90;99.90;;;;;;5033994;28;20168;-85
2021/06/08 04:25:56;;;;;;;8.35;7.65;;;15.90;99.90;;;;;;5034279;28;20183;-85
2021/06/08 04:28:24;;;;;;;10.25;8.45;;;16.00;99.90;;;;;;5044278;28;20172;-85
2021/06/08 04:30:51;;;;;;;9.55;7.97;;;16.10;99.90;;;;;;5069419;28;20199;-85
2021/06/08 04:33:25;;;;;;;9.00;7.95;;;16.20;99.90;;;;;;5053911;28;20159;-85
2021/06/08 04:35:51;;;;;;;14.27;8.80;;;16.40;99.90;;;;;;5053769;28;20162;-85
2021/06/08 04:38:18;;;;;;;6.22;5.68;;;16.70;99.90;;;;;;5067196;28;20176;-85
2021/06/08 04:40:45;;;;;;;11.35;6.55;;;17.20;99.90;;;;;;5033998;28;20184;-85
2021/06/08 04:43:11;;;;;;;8.68;5.80;;;17.50;99.90;;;;;;5033744;28;20252;-85
2021/06/08 04:45:37;;;;;;;6.40;5.78;;;18.00;99.90;;;;;;5033760;28;20191;-85
2021/06/08 04:48:03;;;;;;;13.05;5.88;;;18.50;99.90;;;;;;5033893;28;20168;-85
2021/06/08 04:50:28;;;;;;;8.00;4.95;;;19.30;99.90;;;;;;5032261;28;20203;-85
2021/06/08 04:52:57;;;;;;;12.15;5.43;;;20.30;99.90;;;;;;5033639;28;20494;-85
2021/06/08 04:55:24;;;;;;;5.80;5.28;;;21.30;99.90;;;;;;5032464;28;20160;-84
2021/06/08 04:57:53;;;;;;;5.63;4.68;;;22.00;99.90;;;;;;5033774;28;20165;-85
2021/06/08 05:00:32;;;;;;;6.13;5.47;;;22.60;99.90;;;;;;5033610;28;20168;-85
2021/06/08 05:03:11;;;;;;;8.40;5.18;;;23.20;99.90;;;;;;5032364;28;20156;-84
2021/06/08 05:05:41;;;;;;;6.72;3.90;;;23.80;99.90;;;;;;5032107;28;20250;-85
2021/06/08 05:08:13;;;;;;;5.13;3.72;;;24.60;99.90;;;;;;5034801;28;20221;-85
2021/06/08 05:10:48;;;;;;;4.57;4.18;;;25.30;99.90;;;;;;5053248;28;20191;-85
2021/06/08 05:13:15;;;;;;;4.68;4.28;;;26.00;99.90;;;;;;5046864;28;20240;-85
2021/06/08 05:15:41;;;;;;;5.53;3.65;;;26.50;99.90;;;;;;5033395;28;20175;-85
2021/06/08 05:18:10;;;;;;;10.23;3.53;;;26.90;99.90;;;;;;5033275;28;20164;-85
2021/06/08 05:20:39;;;;;;;6.22;4.10;;;27.40;99.90;;;;;;5032873;28;20263;-85
2021/06/08 05:23:06;;;;;;;8.13;3.53;;;27.90;99.90;;;;;;5033016;28;20710;-85
2021/06/08 05:25:32;;;;;;;4.53;4.15;;;28.40;99.90;;;;;;5031946;28;20494;-85
2021/06/08 05:27:59;;;;;;;5.30;4.88;;;28.80;99.90;;;;;;5041126;28;20160;-84
2021/06/08 05:30:25;;;;;;;10.02;5.43;;;29.30;99.90;;;;;;5068709;28;20312;-85
2021/06/08 05:32:51;;;;;;;9.95;5.60;;;29.80;99.90;;;;;;5052869;28;20167;-85
2021/06/08 05:35:25;;;;;;;13.00;6.18;;;30.20;99.90;;;;;;5052971;28;20248;-85
2021/06/08 05:37:51;;;;;;;9.45;6.20;;;30.60;99.90;;;;;;5052021;28;20220;-85
2021/06/08 05:40:17;;;;;;;11.35;6.40;;;31.10;99.90;;;;;;5017256;28;20187;-85
2021/06/08 05:42:45;;;;;;;7.45;6.75;;;31.30;99.90;;;;;;5036579;28;20581;-86
2021/06/08 05:45:12;;;;;;;34.95;6.22;;;31.60;99.90;;;;;;5037063;28;20550;-85
2021/06/08 05:47:37;;;;;;;8.07;5.80;;;31.90;99.90;;;;;;5036506;28;20156;-86
2021/06/08 05:50:03;;;;;;;8.00;5.00;;;32.50;99.90;;;;;;5036569;28;20167;-86
2021/06/08 05:52:31;;;;;;;5.57;5.05;;;33.00;99.70;;;;;;5036259;28;20191;-85
2021/06/08 05:54:58;;;;;;;6.13;5.47;;;33.50;98.60;;;;;;5035540;28;20262;-86
2021/06/08 05:57:24;;;;;;;10.85;6.30;;;34.00;96.70;;;;;;5036270;28;20164;-85
2021/06/08 05:59:50;;;;;;;6.72;6.22;;;34.40;94.90;;;;;;5036336;28;20209;-85
2021/06/08 06:02:17;;;;;;;11.85;6.30;;;34.70;94.10;;;;;;5036455;28;20259;-85
2021/06/08 06:04:44;;;;;;;8.20;6.93;;;35.00;93.10;;;;;;5036462;28;20230;-86
2021/06/08 06:07:10;;;;;;;7.00;6.40;;;35.40;91.90;;;;;;5035106;28;20163;-85
2021/06/08 06:09:37;;;;;;;9.00;6.55;;;35.50;90.90;;;;;;5051768;28;20185;-83
2021/06/08 06:12:05;;;;;;;7.45;6.80;;;35.60;90.90;;;;;;5054582;28;20731;-85
2021/06/08 06:14:31;;;;;;;18.27;7.05;;;35.80;90.50;;;;;;5044950;28;20195;-85
2021/06/08 06:16:58;;;;;;;6.25;5.65;;;36.10;90.30;;;;;;5018662;28;20175;-86
2021/06/08 06:19:24;;;;;;;10.40;7.07;;;36.20;90.10;;;;;;5036295;28;20255;-86
2021/06/08 06:21:53;;;;;;;11.60;7.03;;;36.50;88.60;;;;;;5036143;28;20168;-86
2021/06/08 06:24:20;;;;;;;8.10;6.57;;;36.80;88.30;;;;;;5034755;28;20163;-85
2021/06/08 06:26:46;;;;;;;10.27;5.80;;;36.80;88.20;;;;;;5047036;28;20504;-86
2021/06/08 06:29:13;;;;;;;9.90;6.95;;;37.10;89.40;;;;;;5055893;28;20186;-86
2021/06/08 06:31:46;;;;;;;12.77;6.70;;;37.50;86.60;;;;;;5071290;28;20205;-88
2021/06/08 06:34:14;;;;;;;7.35;6.70;;;37.70;85.20;;;;;;5056243;28;20213;-87
2021/06/08 06:36:42;;;;;;;12.50;6.93;;;38.20;84.10;;;;;;5055640;28;20504;-87
2021/06/08 06:39:24;;;;;;;24.00;7.05;;;38.70;82.60;;;;;;5054062;28;20186;-87
2021/06/08 06:41:52;;;;;;;8.70;7.88;;;38.80;82.30;;;;;;5046458;28;20269;-86
2021/06/08 06:44:20;;;;;;;6.97;6.30;;;39.00;79.80;;;;;;5035540;28;20164;-87
2021/06/08 06:46:47;;;;;;;24.02;8.40;;;39.00;80.90;;;;;;5034387;28;20642;-87
2021/06/08 06:49:13;;;;;;;13.90;8.10;;;39.40;78.50;;;;;;5035052;28;20195;-86
2021/06/08 06:51:41;;;;;;;13.02;7.38;;;39.70;79.00;;;;;;5035225;28;20239;-86
2021/06/08 06:54:09;;;;;;;10.75;7.93;;;39.60;77.90;;;;;;5034453;28;20164;-86
2021/06/08 06:56:35;;;;;;;8.55;7.43;;;39.70;77.30;;;;;;5035374;28;20242;-86
2021/06/08 06:59:03;;;;;;;11.35;7.95;;;40.20;76.40;;;;;;5034515;28;20179;-87
2021/06/08 07:01:28;;;;;;;11.27;6.18;;;40.80;76.10;;;;;;5035530;28;20217;-87
2021/06/08 07:03:56;;;;;;;11.23;6.40;;;41.30;76.80;;;;;;5035430;28;20156;-87
2021/06/08 07:06:23;;;;;;;7.65;5.85;;;41.10;74.60;;;;;;5035083;28;20250;-87
2021/06/08 07:08:53;;;;;;;8.40;7.60;;;40.50;75.90;;;;;;5036533;28;20167;-87
2021/06/08 07:11:22;;;;;;;15.20;8.32;;;40.90;73.90;;;;;;5039232;28;20187;-88
2021/06/08 07:14:04;;;;;;;8.02;7.22;;;41.20;73.70;;;;;;5043151;28;20213;-86
2021/06/08 07:16:30;;;;;;;17.70;9.50;;;40.80;74.30;;;;;;5054778;28;20514;-86
2021/06/08 07:18:56;;;;;;;11.63;7.95;;;40.60;74.00;;;;;;5054673;28;20645;-87
2021/06/08 07:21:24;;;;;;;12.57;11.38;;;40.60;73.10;;;;;;5055045;28;20159;-87
2021/06/08 07:23:54;;;;;;;13.05;11.85;;;40.20;72.90;;;;;;5054604;28;20583;-86
2021/06/08 07:26:22;;;;;;;17.00;11.55;;;40.70;72.90;;;;;;5054999;28;20241;-86
2021/06/08 07:28:48;;;;;;;11.90;10.57;;;41.30;71.60;;;;;;5054826;28;20253;-87
2021/06/08 07:31:28;;;;;;;15.05;10.68;;;41.20;71.40;;;;;;5054667;28;20285;-87
2021/06/08 07:34:04;;;;;;;11.02;8.75;;;41.30;70.00;;;;;;5055055;28;20174;-86
2021/06/08 07:36:43;;;;;;;9.73;8.77;;;41.40;71.10;;;;;;5048818;28;20643;-86
2021/06/08 07:39:31;;;;;;;11.38;8.38;;;41.50;70.80;;;;;;5043196;28;20270;-87
2021/06/08 07:42:02;;;;;;;8.32;7.65;;;41.80;69.70;;;;;;5054467;28;20159;-87
2021/06/08 07:44:35;;;;;;;8.90;7.43;;;42.00;66.30;;;;;;5054597;28;20158;-86
2021/06/08 07:47:03;;;;;;;7.90;6.90;;;41.70;66.60;;;;;;5054613;28;20571;-88
2021/06/08 07:49:32;;;;;;;5.55;5.05;;;42.30;66.60;;;;;;5054779;28;20159;-88
2021/06/08 07:51:59;;;;;;;7.80;7.07;;;42.40;66.60;;;;;;5053572;28;20217;-87
2021/06/08 07:54:27;;;;;;;9.57;5.57;;;42.10;67.70;;;;;;5053552;28;20189;-88
2021/06/08 07:56:53;;;;;;;8.95;5.03;;;42.10;66.50;;;;;;5054452;28;20159;-85
2021/06/08 07:59:19;;;;;;;5.35;4.82;;;42.50;65.20;;;;;;5054115;28;20519;-84
2021/06/08 08:01:45;;;;;;;8.00;6.05;;;42.30;66.30;;;;;;5069381;28;20226;-88
2021/06/08 08:04:18;;;;;;;10.85;6.25;;;42.60;63.70;;;;;;5054303;28;20277;-86
2021/06/08 08:06:45;;;;;;;12.13;4.55;;;43.00;64.20;;;;;;5046428;28;20190;-85
2021/06/08 08:09:11;;;;;;;7.57;5.10;;;42.50;63.80;;;;;;5045635;28;20170;-86
2021/06/08 08:11:41;;;;;;;8.30;7.47;;;42.20;65.80;;;;;;5053608;28;20532;-83
2021/06/08 08:14:07;;;;;;;7.53;6.15;;;42.30;66.10;;;;;;5053933;28;20249;-84
2021/06/08 08:16:33;;;;;;;11.68;6.47;;;42.90;65.00;;;;;;5051934;28;20249;-84
2021/06/08 08:19:00;;;;;;;10.70;5.60;;;42.30;65.40;;;;;;5053541;28;20624;-85
2021/06/08 08:21:26;;;;;;;12.60;5.82;;;41.80;67.50;;;;;;5052542;28;20213;-87
2021/06/08 08:23:51;;;;;;;8.98;5.97;;;42.20;65.00;;;;;;5053791;28;20190;-86
2021/06/08 08:26:17;;;;;;;8.90;6.50;;;42.80;66.20;;;;;;5053661;28;20198;-86
2021/06/08 08:28:44;;;;;;;7.13;6.45;;;42.50;62.30;;;;;;5069418;28;20159;-85
2021/06/08 08:31:12;;;;;;;8.10;6.07;;;43.10;64.80;;;;;;5053644;28;20236;-86
2021/06/08 08:33:38;;;;;;;6.88;6.28;;;43.30;62.80;;;;;;5053892;28;20219;-84
2021/06/08 08:36:04;;;;;;;13.10;5.57;;;42.50;61.80;;;;;;5050214;28;20257;-85
2021/06/08 08:38:30;;;;;;;9.05;5.78;;;42.30;62.70;;;;;;5044871;28;20171;-85
2021/06/08 08:40:58;;;;;;;5.85;5.30;;;41.50;65.80;;;;;;5032792;28;20183;-85
2021/06/08 08:43:25;;;;;;;6.80;5.78;;;41.90;63.40;;;;;;5033480;28;20254;-84
2021/06/08 08:45:51;;;;;;;6.13;4.88;;;43.10;62.20;;;;;;5032589;28;20669;-85
2021/06/08 08:48:20;;;;;;;6.82;5.72;;;42.90;62.10;;;;;;5033153;28;20164;-87
2021/06/08 08:50:46;;;;;;;13.02;6.50;;;42.40;63.10;;;;;;5052653;28;20206;-87
2021/06/08 08:53:16;;;;;;;11.05;4.70;;;41.70;65.00;;;;;;5068996;28;20171;-86
2021/06/08 08:55:44;;;;;;;7.70;4.80;;;41.40;65.00;;;;;;5068631;28;20154;-87
2021/06/08 08:58:10;;;;;;;8.43;4.63;;;41.10;65.20;;;;;;5040912;28;20187;-87
2021/06/08 09:00:35;;;;;;;14.63;5.40;;;42.30;63.90;;;;;;5032214;28;20203;-88
2021/06/08 09:03:04;;;;;;;5.28;3.08;;;43.50;59.30;;;;;;5033265;28;20172;-89
2021/06/08 09:05:36;;;;;;;7.65;5.05;;;44.80;59.50;;;;;;5034891;28;20159;-85
2021/06/08 09:08:03;;;;;;;10.95;5.30;;;45.80;57.70;;;;;;5048832;28;20163;-85
2021/06/08 09:10:30;;;;;;;5.18;4.32;;;45.90;57.50;;;;;;5032314;28;20208;-85
2021/06/08 09:12:56;;;;;;;11.05;4.20;;;46.50;56.30;;;;;;5038385;28;20179;-88
2021/06/08 09:15:21;;;;;;;4.25;3.70;;;47.20;57.40;;;;;;5072668;28;20164;-87
2021/06/08 09:17:47;;;;;;;5.45;3.55;;;46.70;55.50;;;;;;5046052;28;20198;-87
2021/06/08 09:20:14;;;;;;;4.22;3.83;;;47.00;56.30;;;;;;5038377;28;20222;-89
2021/06/08 09:22:50;;;;;;;7.50;3.83;;;46.40;57.00;;;;;;5037596;28;20243;-89
2021/06/08 09:25:37;;;;;;;5.82;3.67;;;45.50;58.00;;;;;;5036235;28;20170;-90
2021/06/08 09:28:15;;;;;;;6.15;4.53;;;44.90;58.40;;;;;;5037794;28;20168;-87
2021/06/08 09:30:41;;;;;;;5.93;5.00;;;44.80;57.70;;;;;;5037811;28;20257;-86
2021/06/08 09:33:35;;;;;;;8.48;3.97;;;45.10;58.90;;;;;;5032292;28;20639;-89
2021/06/08 09:36:09;;;;;;;5.35;4.68;;;45.20;57.90;;;;;;5037495;28;20171;-88
2021/06/08 09:38:52;;;;;;;11.65;4.85;;;45.40;57.80;;;;;;5069600;28;20426;-88
2021/06/08 09:41:32;;;;;;;4.57;4.10;;;44.70;58.10;;;;;;5037123;28;20619;-86
2021/06/08 09:44:07;;;;;;;9.95;4.88;;;45.20;58.00;;;;;;5056917;28;20151;-90
2021/06/08 09:46:47;;;;;;;5.07;4.53;;;44.80;56.50;;;;;;5047032;28;20162;-87
2021/06/08 09:49:16;;;;;;;5.40;4.65;;;45.30;58.00;;;;;;5036644;28;20168;-84
2021/06/08 09:51:55;;;;;;;6.70;6.07;;;43.50;59.40;;;;;;5051827;28;20199;-85
2021/06/08 09:54:42;;;;;;;6.57;5.88;;;40.60;60.90;;;;;;5034902;28;20171;-87
2021/06/08 09:57:20;;;;;;;6.80;6.03;;;38.20;65.20;;;;;;5040478;28;20173;-83
2021/06/08 09:59:58;;;;;;;13.52;5.38;;;36.80;65.70;;;;;;5055593;28;20522;-86
2021/06/08 10:02:27;;;;;;;10.60;6.32;;;35.30;68.30;;;;;;5072088;28;20170;-87
2021/06/08 10:05:13;;;;;;;7.68;6.05;;;34.20;70.40;;;;;;5056219;28;20684;-87
2021/06/08 10:07:39;;;;;;;6.65;6.15;;;33.20;69.60;;;;;;5053072;28;20160;-88
2021/06/08 10:10:08;;;;;;;7.65;6.93;;;32.80;72.70;;;;;;5036827;28;20166;-88
2021/06/08 10:12:52;;;;;;;11.88;6.05;;;32.70;74.60;;;;;;5042640;28;20179;-87
2021/06/08 10:15:19;;;;;;;8.27;5.68;;;32.70;74.70;;;;;;5035697;28;20273;-88
2021/06/08 10:17:44;;;;;;;8.23;5.97;;;33.60;74.80;;;;;;5035155;28;20168;-87
2021/06/08 10:20:21;;;;;;;6.57;5.95;;;37.10;68.90;;;;;;5035307;28;20187;-87
2021/06/08 10:22:46;;;;;;;6.32;5.70;;;39.60;62.20;;;;;;5037317;28;20487;-87
2021/06/08 10:25:13;;;;;;;9.55;5.55;;;40.70;62.10;;;;;;5035994;28;20170;-85
2021/06/08 10:27:39;;;;;;;6.72;5.97;;;41.60;61.10;;;;;;5035537;28;20167;-94
2021/06/08 10:30:06;;;;;;;6.57;5.45;;;41.40;59.10;;;;;;5049682;28;20167;-91
2021/06/08 10:32:33;;;;;;;23.45;5.97;;;42.90;61.20;;;;;;5036982;28;20163;-92
2021/06/08 10:34:58;;;;;;;10.65;5.97;;;43.50;59.40;;;;;;5039382;28;20661;-92
2021/06/08 10:37:24;;;;;;;6.68;5.38;;;43.10;59.10;;;;;;5038752;28;20164;-92
2021/06/08 10:39:50;;;;;;;5.88;5.35;;;44.10;58.10;;;;;;5036795;28;20195;-93
2021/06/08 10:42:16;;;;;;;6.53;5.50;;;44.40;56.70;;;;;;5042420;28;20216;-91
2021/06/08 10:44:42;;;;;;;6.45;5.93;;;44.80;56.60;;;;;;5059651;28;20182;-93
2021/06/08 10:47:53;;;;;;;7.10;4.93;;;45.80;55.30;;;;;;5052182;28;20163;-93
2021/06/08 10:50:29;;;;;;;6.13;5.53;;;46.40;55.20;;;;;;5032774;28;20183;-92
2021/06/08 10:52:56;;;;;;;5.80;5.25;;;45.70;54.80;;;;;;5036568;28;20646;-92
2021/06/08 10:55:34;;;;;;;8.02;4.60;;;44.20;55.70;;;;;;5036448;28;20164;-92
2021/06/08 10:58:01;;;;;;;9.52;6.15;;;42.70;58.80;;;;;;5036630;28;20159;-92
2021/06/08 11:00:27;;;;;;;25.65;5.75;;;43.00;57.10;;;;;;5042802;28;20186;-91
2021/06/08 11:02:59;;;;;;;8.23;6.53;;;43.40;57.60;;;;;;5046413;28;20229;-87
2021/06/08 11:05:45;;;;;;;6.88;5.45;;;41.50;59.40;;;;;;5035622;28;20491;-88
2021/06/08 11:08:11;;;;;;;7.07;6.57;;;41.60;61.60;;;;;;5036109;28;20182;-90
2021/06/08 11:10:36;;;;;;;9.20;5.20;;;42.80;57.10;;;;;;5052304;28;20243;-87
2021/06/08 11:13:11;;;;;;;12.30;6.32;;;42.80;58.80;;;;;;5051361;28;20191;-92
2021/06/08 11:15:45;;;;;;;11.82;6.45;;;43.20;58.80;;;;;;5038694;28;20245;-91
2021/06/08 11:18:20;;;;;;;6.00;5.43;;;44.00;55.60;;;;;;5071416;28;20317;-89
2021/06/08 11:20:48;;;;;;;5.85;5.05;;;43.50;56.90;;;;;;5054957;28;20179;-91
2021/06/08 11:23:33;;;;;;;7.65;5.70;;;44.00;57.60;;;;;;5055425;28;20167;-91
2021/06/08 11:25:59;;;;;;;5.10;4.47;;;44.60;57.30;;;;;;5049603;28;20206;-92
2021/06/08 11:28:45;;;;;;;11.05;4.05;;;45.30;56.00;;;;;;5050485;28;20171;-88
2021/06/08 11:31:15;;;;;;;7.20;4.50;;;45.40;58.30;;;;;;5053177;28;20187;-90
2021/06/08 11:33:48;;;;;;;9.55;4.90;;;44.80;57.00;;;;;;5037065;28;20179;-92
2021/06/08 11:36:22;;;;;;;10.35;6.25;;;44.10;57.70;;;;;;5015287;28;20145;-90
2021/06/08 11:38:53;;;;;;;8.95;5.28;;;43.00;55.60;;;;;;5025424;28;20174;-91
2021/06/08 11:41:19;;;;;;;5.93;5.43;;;41.50;57.60;;;;;;5054935;28;20201;-92
2021/06/08 11:43:54;;;;;;;6.28;5.65;;;40.00;59.70;;;;;;5053712;28;20169;-92
2021/06/08 11:46:29;;;;;;;9.70;4.78;;;40.60;58.80;;;;;;5055293;28;20198;-92
2021/06/08 11:49:05;;;;;;;8.70;5.20;;;41.00;59.00;;;;;;5070381;28;20178;-90
2021/06/08 11:51:36;;;;;;;8.90;5.45;;;40.20;59.50;;;;;;5055403;28;20530;-90
2021/06/08 11:54:14;;;;;;;7.40;5.60;;;40.50;58.70;;;;;;5048445;28;20167;-87
2021/06/08 11:56:45;;;;;;;7.28;4.63;;;39.00;61.30;;;;;;5034278;28;20167;-90
2021/06/08 11:59:12;;;;;;;8.52;6.15;;;36.80;64.60;;;;;;5034818;28;20175;-87
2021/06/08 12:01:43;;;;;;;5.78;5.25;;;35.10;64.40;;;;;;5036685;28;20171;-86
2021/06/08 12:04:10;;;;;;;7.60;5.60;;;34.00;68.50;;;;;;5035942;28;20597;-90
2021/06/08 12:07:04;;;;;;;6.90;5.20;;;33.10;68.70;;;;;;5037432;28;20190;-89
2021/06/08 12:09:32;;;;;;;5.32;4.53;;;32.50;72.20;;;;;;5069851;28;20229;-91
2021/06/08 12:12:03;;;;;;;8.30;5.32;;;32.30;70.30;;;;;;5054258;28;20203;-93
2021/06/08 12:14:28;;;;;;;6.30;5.70;;;32.60;72.00;;;;;;5052437;28;20494;-87
2021/06/08 12:16:57;;;;;;;7.38;5.38;;;33.10;69.10;;;;;;5050803;28;20178;-88
2021/06/08 12:19:32;;;;;;;11.32;5.55;;;33.90;69.10;;;;;;5034360;28;20187;-89
2021/06/08 12:22:00;;;;;;;6.65;5.35;;;33.60;68.80;;;;;;5047892;28;20174;-87
2021/06/08 12:24:26;;;;;;;11.32;6.50;;;33.40;69.90;;;;;;5052440;28;20635;-89
2021/06/08 12:27:02;;;;;;;5.40;4.97;;;33.40;68.10;;;;;;5035051;28;20163;-86
2021/06/08 12:29:28;;;;;;;5.70;5.18;;;33.10;69.50;;;;;;5025146;28;20250;-86
2021/06/08 12:32:05;;;;;;;6.53;5.22;;;33.20;70.70;;;;;;5051267;28;20307;-89
2021/06/08 12:34:35;;;;;;;6.40;5.15;;;32.80;70.20;;;;;;5034355;28;20198;-89
2021/06/08 12:37:01;;;;;;;5.72;5.15;;;32.90;70.50;;;;;;5047125;28;20174;-90
2021/06/08 12:39:30;;;;;;;7.15;4.35;;;32.90;70.40;;;;;;5034893;28;20262;-85
2021/06/08 12:42:15;;;;;;;4.93;4.47;;;33.10;69.80;;;;;;5054429;28;20223;-91
2021/06/08 12:44:42;;;;;;;6.22;5.68;;;33.00;68.90;;;;;;5057552;28;20258;-89
2021/06/08 12:47:08;;;;;;;11.25;5.68;;;32.70;70.30;;;;;;5035015;28;20175;-90
2021/06/08 12:49:39;;;;;;;7.85;4.32;;;32.40;68.80;;;;;;5048120;28;20163;-92
2021/06/08 12:52:06;;;;;;;6.78;4.43;;;32.10;72.60;;;;;;5042922;28;20214;-92
2021/06/08 12:54:38;;;;;;;8.30;4.65;;;31.90;75.00;;;;;;5034451;28;20662;-93